createdAt,value
2023-05-18T00:02:21.016Z,15.80
2023-05-18T00:04:48.115Z,15.70
2023-05-18T00:07:15.779Z,15.60
2023-05-18T00:09:42.598Z,15.60
2023-05-18T00:12:12.048Z,15.70
2023-05-18T00:14:38.846Z,15.70
2023-05-18T00:17:05.740Z,15.70
2023-05-18T00:19:32.539Z,15.80
2023-05-18T00:21:59.367Z,16.10
2023-05-18T00:24:26.112Z,16.10
2023-05-18T00:26:52.860Z,16.10
2023-05-18T00:29:19.760Z,16.10
2023-05-18T00:31:46.543Z,16.00
2023-05-18T00:34:14.832Z,16.10
2023-05-18T00:36:41.973Z,16.00
2023-05-18T00:39:09.583Z,16.00
2023-05-18T00:41:36.687Z,16.00
2023-05-18T00:44:05.002Z,16.10
2023-05-18T00:46:32.317Z,16.10
2023-05-18T00:49:01.581Z,16.20
2023-05-18T00:51:29.193Z,16.20
2023-05-18T00:53:56.741Z,16.20
2023-05-18T00:56:25.009Z,16.20
2023-05-18T00:58:57.620Z,16.10
2023-05-18T01:01:34.681Z,16.00
2023-05-18T01:04:03.217Z,16.00
2023-05-18T01:06:35.630Z,16.00
2023-05-18T01:09:04.445Z,16.10
2023-05-18T01:11:57.080Z,16.10
2023-05-18T01:14:34.316Z,16.10
2023-05-18T01:17:23.751Z,16.00
2023-05-18T01:19:50.531Z,15.90
2023-05-18T01:22:35.209Z,15.70
2023-05-18T01:25:24.244Z,15.70
2023-05-18T01:27:56.127Z,15.80
2023-05-18T01:30:22.993Z,15.90
2023-05-18T01:32:49.879Z,16.00
2023-05-18T01:35:16.750Z,16.00
2023-05-18T01:37:43.491Z,16.00
2023-05-18T01:40:10.660Z,15.90
2023-05-18T01:42:43.952Z,15.90
2023-05-18T01:45:18.574Z,15.90
2023-05-18T01:47:48.223Z,15.90
2023-05-18T01:50:22.495Z,15.90
2023-05-18T01:52:54.137Z,15.80
2023-05-18T01:55:22.995Z,15.60
2023-05-18T01:57:52.619Z,15.50
2023-05-18T02:00:20.204Z,15.40
2023-05-18T02:02:47.496Z,15.50
2023-05-18T02:05:14.532Z,15.70
2023-05-18T02:07:44.085Z,15.70
2023-05-18T02:10:11.627Z,15.70
2023-05-18T02:12:38.407Z,15.70
2023-05-18T02:15:06.367Z,15.60
2023-05-18T02:17:33.778Z,15.60
2023-05-18T02:20:00.665Z,15.70
2023-05-18T02:22:27.483Z,15.60
2023-05-18T02:24:54.187Z,15.60
2023-05-18T02:27:21.171Z,15.50
2023-05-18T02:29:47.903Z,15.60
2023-05-18T02:32:14.802Z,15.70
2023-05-18T02:34:42.492Z,15.80
2023-05-18T02:37:09.403Z,15.80
2023-05-18T02:39:36.095Z,15.90
2023-05-18T02:42:02.973Z,15.90
2023-05-18T02:44:29.859Z,15.90
2023-05-18T02:46:56.989Z,15.90
2023-05-18T02:49:23.807Z,15.90
2023-05-18T02:51:50.516Z,15.90
2023-05-18T02:54:17.238Z,15.90
2023-05-18T02:56:44.037Z,15.90
2023-05-18T02:59:11.503Z,15.90
2023-05-18T03:01:41.043Z,15.90
2023-05-18T03:04:08.035Z,15.90
2023-05-18T03:06:36.181Z,15.90
2023-05-18T03:09:03.027Z,15.90
2023-05-18T03:11:29.833Z,15.90
2023-05-18T03:13:56.614Z,15.90
2023-05-18T03:16:28.233Z,15.90
2023-05-18T03:18:58.805Z,15.80
2023-05-18T03:21:25.784Z,15.90
2023-05-18T03:23:52.500Z,15.80
2023-05-18T03:26:19.447Z,15.90
2023-05-18T03:28:46.343Z,15.90
2023-05-18T03:31:13.104Z,15.80
2023-05-18T03:33:39.941Z,15.80
2023-05-18T03:36:07.165Z,15.80
2023-05-18T03:38:34.063Z,15.80
2023-05-18T03:41:00.888Z,15.80
2023-05-18T03:43:29.560Z,15.80
2023-05-18T03:45:56.659Z,15.80
2023-05-18T03:48:24.718Z,15.70
2023-05-18T03:50:51.621Z,15.70
2023-05-18T03:53:19.199Z,15.70
2023-05-18T03:55:46.642Z,15.70
2023-05-18T03:58:13.567Z,15.70
2023-05-18T04:00:40.701Z,15.60
2023-05-18T04:03:07.691Z,15.60
2023-05-18T04:05:34.505Z,15.50
2023-05-18T04:08:01.345Z,15.50
2023-05-18T04:10:28.153Z,15.50
2023-05-18T04:12:54.842Z,15.50
2023-05-18T04:15:21.650Z,15.60
2023-05-18T04:17:51.476Z,15.50
2023-05-18T04:20:18.736Z,15.50
2023-05-18T04:22:48.207Z,15.50
2023-05-18T04:25:15.894Z,15.50
2023-05-18T04:27:45.247Z,15.50
2023-05-18T04:30:13.297Z,15.50
2023-05-18T04:32:42.890Z,15.50
2023-05-18T04:35:11.512Z,15.40
2023-05-18T04:37:41.624Z,15.40
2023-05-18T04:40:17.570Z,15.40
2023-05-18T04:42:47.737Z,15.40
2023-05-18T04:45:16.676Z,15.40
2023-05-18T04:47:47.889Z,15.40
2023-05-18T04:50:18.490Z,15.40
2023-05-18T04:52:49.017Z,15.40
2023-05-18T04:55:26.509Z,15.40
2023-05-18T04:57:56.668Z,15.40
2023-05-18T05:00:24.886Z,15.50
2023-05-18T05:02:52.066Z,15.50
2023-05-18T05:05:19.081Z,15.50
2023-05-18T05:07:45.870Z,15.50
2023-05-18T05:10:12.972Z,15.60
2023-05-18T05:12:41.600Z,15.60
2023-05-18T05:15:09.666Z,15.60
2023-05-18T05:17:36.732Z,15.60
2023-05-18T05:20:03.854Z,15.60
2023-05-18T05:22:30.590Z,15.60
2023-05-18T05:24:57.416Z,15.70
2023-05-18T05:27:26.455Z,15.70
2023-05-18T05:29:53.369Z,15.60
2023-05-18T05:32:20.175Z,15.70
2023-05-18T05:34:48.132Z,15.70
2023-05-18T05:37:14.902Z,15.70
2023-05-18T05:39:41.756Z,15.70
2023-05-18T05:42:11.461Z,15.70
2023-05-18T05:44:39.358Z,15.70
2023-05-18T05:47:06.638Z,15.60
2023-05-18T05:49:33.539Z,15.50
2023-05-18T05:52:00.714Z,15.50
2023-05-18T05:54:27.556Z,15.50
2023-05-18T05:56:54.424Z,15.40
2023-05-18T05:59:22.355Z,15.50
2023-05-18T06:01:49.208Z,15.60
2023-05-18T06:04:16.187Z,15.50
2023-05-18T06:06:43.919Z,15.50
2023-05-18T06:09:10.996Z,15.60
2023-05-18T06:11:38.222Z,15.70
2023-05-18T06:14:05.214Z,15.70
2023-05-18T06:16:32.082Z,15.70
2023-05-18T06:18:59.042Z,15.60
2023-05-18T06:21:25.929Z,15.70
2023-05-18T06:23:52.650Z,15.70
2023-05-18T06:26:19.491Z,15.70
2023-05-18T06:28:46.258Z,15.70
2023-05-18T06:31:13.012Z,15.70
2023-05-18T06:33:40.090Z,15.80
2023-05-18T06:36:06.968Z,15.80
2023-05-18T06:38:33.730Z,15.80
2023-05-18T06:41:00.573Z,15.90
2023-05-18T06:43:28.424Z,15.80
2023-05-18T06:45:56.192Z,15.90
2023-05-18T06:48:26.206Z,15.90
2023-05-18T06:50:53.133Z,15.90
2023-05-18T06:53:19.871Z,15.90
2023-05-18T06:55:47.247Z,15.90
2023-05-18T06:58:14.016Z,15.90
2023-05-18T07:00:41.077Z,15.90
2023-05-18T07:03:08.468Z,15.90
2023-05-18T07:05:39.169Z,16.00
2023-05-18T07:08:07.343Z,16.10
2023-05-18T07:10:36.044Z,16.10
2023-05-18T07:13:02.867Z,16.00
2023-05-18T07:15:30.156Z,16.30
2023-05-18T07:17:57.512Z,16.20
2023-05-18T07:20:26.321Z,16.20
2023-05-18T07:22:55.287Z,16.10
2023-05-18T07:25:22.904Z,16.10
2023-05-18T07:27:52.089Z,16.10
2023-05-18T07:30:18.931Z,16.20
2023-05-18T07:32:46.065Z,16.30
2023-05-18T07:35:13.199Z,16.20
2023-05-18T07:37:40.018Z,16.20
2023-05-18T07:40:09.795Z,16.20
2023-05-18T07:42:36.649Z,16.30
2023-05-18T07:45:03.720Z,16.30
2023-05-18T07:47:30.532Z,16.30
2023-05-18T07:49:57.337Z,16.30
2023-05-18T07:52:24.173Z,16.40
2023-05-18T07:54:51.029Z,16.40
2023-05-18T07:57:17.713Z,16.40
2023-05-18T07:59:44.390Z,16.40
2023-05-18T08:02:11.358Z,16.40
2023-05-18T08:04:38.367Z,16.40
2023-05-18T08:07:05.169Z,16.50
2023-05-18T08:09:32.108Z,16.50
2023-05-18T08:11:58.878Z,16.50
2023-05-18T08:14:25.713Z,16.50
2023-05-18T08:16:52.731Z,16.50
2023-05-18T08:19:19.652Z,16.60
2023-05-18T08:21:46.441Z,16.60
2023-05-18T08:24:13.361Z,16.70
2023-05-18T08:26:40.181Z,16.70
2023-05-18T08:29:10.177Z,16.70
2023-05-18T08:31:38.127Z,16.80
2023-05-18T08:34:06.092Z,16.80
2023-05-18T08:36:34.794Z,16.80
2023-05-18T08:39:02.954Z,16.80
2023-05-18T08:41:40.356Z,16.80
2023-05-18T08:44:12.228Z,16.80
2023-05-18T08:46:42.819Z,16.80
2023-05-18T08:49:10.745Z,16.90
2023-05-18T08:51:38.429Z,17.00
2023-05-18T08:54:08.422Z,17.00
2023-05-18T08:56:35.757Z,17.10
2023-05-18T08:59:08.450Z,17.10
2023-05-18T09:01:35.924Z,17.20
2023-05-18T09:04:03.299Z,17.20
2023-05-18T09:06:30.244Z,17.30
2023-05-18T09:08:58.315Z,17.30
2023-05-18T09:11:26.391Z,17.40
2023-05-18T09:13:54.408Z,17.50
2023-05-18T09:16:21.252Z,17.50
2023-05-18T09:18:48.190Z,17.60
2023-05-18T09:21:15.025Z,17.70
2023-05-18T09:23:42.335Z,17.70
2023-05-18T09:26:13.363Z,17.70
2023-05-18T09:28:43.875Z,17.70
2023-05-18T09:31:16.592Z,17.60
2023-05-18T09:33:45.022Z,17.60
2023-05-18T09:36:12.792Z,17.60
2023-05-18T09:38:45.838Z,17.70
2023-05-18T09:41:15.104Z,17.70
2023-05-18T09:43:43.743Z,17.80
2023-05-18T09:46:12.542Z,17.70
2023-05-18T09:48:44.488Z,17.70
2023-05-18T09:51:17.671Z,17.80
2023-05-18T09:53:57.987Z,17.90
2023-05-18T09:56:27.200Z,18.00
2023-05-18T09:58:54.313Z,18.00
2023-05-18T10:01:21.182Z,18.10
2023-05-18T10:03:49.820Z,18.10
2023-05-18T10:06:21.343Z,18.30
2023-05-18T10:08:48.487Z,18.40
2023-05-18T10:11:19.764Z,18.60
2023-05-18T10:13:47.070Z,18.70
2023-05-18T10:16:15.826Z,18.90
2023-05-18T10:18:43.385Z,19.10
2023-05-18T10:21:12.658Z,19.20
2023-05-18T10:23:40.989Z,19.20
2023-05-18T10:26:10.057Z,19.20
2023-05-18T10:28:47.508Z,19.20
2023-05-18T10:31:16.418Z,19.20
2023-05-18T10:33:44.451Z,19.10
2023-05-18T10:36:12.073Z,19.00
2023-05-18T10:38:43.517Z,19.00
2023-05-18T10:41:12.288Z,18.90
2023-05-18T10:43:41.459Z,18.90
2023-05-18T10:46:09.520Z,18.80
2023-05-18T10:48:39.700Z,18.80
2023-05-18T10:51:08.206Z,18.90
2023-05-18T10:53:36.663Z,18.90
2023-05-18T10:56:03.955Z,18.90
2023-05-18T10:58:32.710Z,19.00
2023-05-18T11:01:01.984Z,19.10
2023-05-18T11:03:29.039Z,19.20
2023-05-18T11:06:12.981Z,19.30
2023-05-18T11:08:47.302Z,19.40
2023-05-18T11:11:16.469Z,19.40
2023-05-18T11:13:48.730Z,19.60
2023-05-18T11:16:16.886Z,19.50
2023-05-18T11:18:49.444Z,19.50
2023-05-18T11:21:32.587Z,19.70
2023-05-18T11:24:18.704Z,20.00
2023-05-18T11:26:53.522Z,20.30
2023-05-18T11:29:24.598Z,20.70
2023-05-18T11:31:55.806Z,21.00
2023-05-18T11:34:40.079Z,21.50
2023-05-18T11:37:10.232Z,22.10
2023-05-18T11:39:44.783Z,22.50
2023-05-18T11:42:20.416Z,22.90
2023-05-18T11:44:56.699Z,23.30
2023-05-18T11:47:31.912Z,23.60
2023-05-18T11:49:59.093Z,23.70
2023-05-18T11:52:26.078Z,23.70
2023-05-18T11:55:00.450Z,23.70
2023-05-18T11:57:36.346Z,23.60
2023-05-18T12:00:12.943Z,23.40
2023-05-18T12:02:43.846Z,23.20
2023-05-18T12:05:11.576Z,23.20
2023-05-18T12:07:39.847Z,23.20
2023-05-18T12:10:17.191Z,23.20
2023-05-18T12:12:47.554Z,23.30
2023-05-18T12:15:16.563Z,23.30
2023-05-18T12:17:45.934Z,23.20
2023-05-18T12:20:20.065Z,23.20
2023-05-18T12:22:53.148Z,23.40
2023-05-18T12:25:24.215Z,23.30
2023-05-18T12:27:52.637Z,23.30
2023-05-18T12:30:24.326Z,23.70
2023-05-18T12:32:54.263Z,24.00
2023-05-18T12:35:29.266Z,24.20
2023-05-18T12:38:00.187Z,24.30
2023-05-18T12:40:27.915Z,24.50
2023-05-18T12:42:59.755Z,24.70
2023-05-18T12:45:28.208Z,25.00
2023-05-18T12:47:56.242Z,25.20
2023-05-18T12:50:25.590Z,25.20
2023-05-18T12:52:52.883Z,25.40
2023-05-18T12:55:25.159Z,26.00
2023-05-18T12:58:06.221Z,26.10
2023-05-18T13:00:37.590Z,26.30
2023-05-18T13:03:11.055Z,26.50
2023-05-18T13:05:42.383Z,25.80
2023-05-18T13:08:09.490Z,25.00
2023-05-18T13:10:36.230Z,25.10
2023-05-18T13:13:03.880Z,25.50
2023-05-18T13:15:37.592Z,26.20
2023-05-18T13:18:11.978Z,26.80
2023-05-18T13:20:51.058Z,26.80
2023-05-18T13:23:26.694Z,27.00
2023-05-18T13:25:54.365Z,26.80
2023-05-18T13:28:22.951Z,26.20
2023-05-18T13:30:50.478Z,25.70
2023-05-18T13:33:19.083Z,26.10
2023-05-18T13:35:46.335Z,25.80
2023-05-18T13:38:14.411Z,25.10
2023-05-18T13:40:42.128Z,25.20
2023-05-18T13:43:10.971Z,25.00
2023-05-18T13:45:39.761Z,24.90
2023-05-18T13:48:09.536Z,24.50
2023-05-18T13:50:37.069Z,24.20
2023-05-18T13:53:04.030Z,23.80
2023-05-18T13:55:31.068Z,23.60
2023-05-18T13:57:58.112Z,23.80
2023-05-18T14:00:25.185Z,25.80
2023-05-18T14:02:53.240Z,27.70
2023-05-18T14:05:20.266Z,29.00
2023-05-18T14:07:47.074Z,29.90
2023-05-18T14:10:13.992Z,30.40
2023-05-18T14:12:42.643Z,29.50
2023-05-18T14:15:10.988Z,29.80
2023-05-18T14:17:37.912Z,30.40
2023-05-18T14:20:05.751Z,29.90
2023-05-18T14:22:32.826Z,28.70
2023-05-18T14:25:00.954Z,27.60
2023-05-18T14:27:28.749Z,26.70
2023-05-18T14:29:56.012Z,26.10
2023-05-18T14:32:23.117Z,25.50
2023-05-18T14:34:55.990Z,25.00
2023-05-18T14:37:22.800Z,24.70
2023-05-18T14:39:49.658Z,24.50
2023-05-18T14:42:16.468Z,24.20
2023-05-18T14:44:43.235Z,23.80
2023-05-18T14:47:10.810Z,23.60
2023-05-18T14:49:37.872Z,23.50
2023-05-18T14:52:05.055Z,23.20
2023-05-18T14:54:31.857Z,22.90
2023-05-18T14:56:59.703Z,22.80
2023-05-18T14:59:26.516Z,22.70
2023-05-18T15:01:53.385Z,22.70
2023-05-18T15:04:21.764Z,22.30
2023-05-18T15:06:49.453Z,22.30
2023-05-18T15:09:16.316Z,22.30
2023-05-18T15:11:43.123Z,22.00
2023-05-18T15:14:09.965Z,22.20
2023-05-18T15:16:36.823Z,22.40
2023-05-18T15:19:05.149Z,22.60
2023-05-18T15:21:31.991Z,22.80
2023-05-18T15:23:58.858Z,23.00
2023-05-18T15:26:26.145Z,23.10
2023-05-18T15:28:52.976Z,23.20
2023-05-18T15:31:19.878Z,23.20
2023-05-18T15:33:47.006Z,23.30
2023-05-18T15:36:13.968Z,23.40
2023-05-18T15:38:41.282Z,23.40
2023-05-18T15:41:08.064Z,23.30
2023-05-18T15:43:36.680Z,23.30
2023-05-18T15:46:04.340Z,23.30
2023-05-18T15:48:31.139Z,23.40
2023-05-18T15:50:57.907Z,23.40
2023-05-18T15:53:24.678Z,23.40
2023-05-18T15:55:57.477Z,23.50
2023-05-18T15:58:26.721Z,23.60
2023-05-18T16:00:53.954Z,23.60
2023-05-18T16:03:21.235Z,23.60
2023-05-18T16:05:48.308Z,23.60
2023-05-18T16:08:15.090Z,23.60
2023-05-18T16:10:41.884Z,23.80
2023-05-18T16:13:08.764Z,23.90
2023-05-18T16:15:36.025Z,23.90
2023-05-18T16:18:03.154Z,23.70
2023-05-18T16:20:30.703Z,23.60
2023-05-18T16:22:58.368Z,23.40
2023-05-18T16:25:26.312Z,23.40
2023-05-18T16:27:53.061Z,23.20
2023-05-18T16:30:19.837Z,23.00
2023-05-18T16:32:46.720Z,22.80
2023-05-18T16:35:13.511Z,22.70
2023-05-18T16:37:40.233Z,22.60
2023-05-18T16:40:08.279Z,22.50
2023-05-18T16:42:35.754Z,22.40
2023-05-18T16:45:03.053Z,22.30
2023-05-18T16:47:32.322Z,22.20
2023-05-18T16:49:59.954Z,22.10
2023-05-18T16:52:26.937Z,22.10
2023-05-18T16:54:53.985Z,22.00
2023-05-18T16:57:21.158Z,21.90
2023-05-18T16:59:48.185Z,21.90
2023-05-18T17:02:15.953Z,21.70
2023-05-18T17:04:44.711Z,21.60
2023-05-18T17:07:12.524Z,21.60
2023-05-18T17:09:41.577Z,21.50
2023-05-18T17:12:10.331Z,21.40
2023-05-18T17:14:37.729Z,21.20
2023-05-18T17:17:05.780Z,21.10
2023-05-18T17:19:34.858Z,21.10
2023-05-18T17:22:02.526Z,21.10
2023-05-18T17:24:29.251Z,21.00
2023-05-18T17:26:56.244Z,21.00
2023-05-18T17:29:23.041Z,21.00
2023-05-18T17:31:49.824Z,20.90
2023-05-18T17:34:16.900Z,20.90
2023-05-18T17:36:44.723Z,20.90
2023-05-18T17:39:12.385Z,20.80
2023-05-18T17:41:39.217Z,20.80
2023-05-18T17:44:06.242Z,20.70
2023-05-18T17:46:33.156Z,20.70
2023-05-18T17:49:02.184Z,20.70
2023-05-18T17:51:28.939Z,20.60
2023-05-18T17:53:56.505Z,20.50
2023-05-18T17:56:24.785Z,20.50
2023-05-18T17:58:53.295Z,20.50
2023-05-18T18:01:20.588Z,20.40
2023-05-18T18:03:48.680Z,20.40
2023-05-18T18:06:17.715Z,20.40
2023-05-18T18:08:44.986Z,20.40
2023-05-18T18:11:11.918Z,20.30
2023-05-18T18:13:38.681Z,20.30
2023-05-18T18:16:05.926Z,20.30
2023-05-18T18:18:33.252Z,20.20
2023-05-18T18:20:59.994Z,20.20
2023-05-18T18:23:26.780Z,20.10
2023-05-18T18:25:53.774Z,20.10
2023-05-18T18:28:20.848Z,20.10
2023-05-18T18:30:47.664Z,20.10
2023-05-18T18:33:14.808Z,20.00
2023-05-18T18:35:43.076Z,20.00
2023-05-18T18:38:10.000Z,19.90
2023-05-18T18:40:36.805Z,19.90
2023-05-18T18:43:03.542Z,19.90
2023-05-18T18:45:31.895Z,19.80
2023-05-18T18:47:59.294Z,19.80
2023-05-18T18:50:26.758Z,19.80
2023-05-18T18:52:53.825Z,19.70
2023-05-18T18:55:21.420Z,19.70
2023-05-18T18:57:48.183Z,19.70
2023-05-18T19:00:15.110Z,19.60
2023-05-18T19:02:41.986Z,19.60
2023-05-18T19:05:09.994Z,19.60
2023-05-18T19:07:36.811Z,19.60
2023-05-18T19:10:04.726Z,19.40
2023-05-18T19:12:33.140Z,19.40
2023-05-18T19:14:59.899Z,19.40
2023-05-18T19:17:27.064Z,19.40
2023-05-18T19:19:54.309Z,19.40
2023-05-18T19:22:21.346Z,19.30
2023-05-18T19:24:48.399Z,19.30
2023-05-18T19:27:15.285Z,19.30
2023-05-18T19:29:42.120Z,19.30
2023-05-18T19:32:09.291Z,19.20
2023-05-18T19:34:36.307Z,19.20
2023-05-18T19:37:03.107Z,19.20
2023-05-18T19:39:30.308Z,19.20
2023-05-18T19:41:57.172Z,19.20
2023-05-18T19:44:23.985Z,19.10
2023-05-18T19:46:51.360Z,19.00
2023-05-18T19:49:18.249Z,19.10
2023-05-18T19:51:45.063Z,19.10
2023-05-18T19:54:12.869Z,19.10
2023-05-18T19:56:39.768Z,19.00
2023-05-18T19:59:06.619Z,19.00
2023-05-18T20:01:34.124Z,19.00
2023-05-18T20:04:01.748Z,18.90
2023-05-18T20:06:29.835Z,18.90
2023-05-18T20:08:56.843Z,18.80
2023-05-18T20:11:23.979Z,18.70
2023-05-18T20:13:50.809Z,18.70
2023-05-18T20:16:18.675Z,18.60
2023-05-18T20:18:47.122Z,18.70
2023-05-18T20:21:14.186Z,18.70
2023-05-18T20:23:41.033Z,18.60
2023-05-18T20:26:07.854Z,18.60
2023-05-18T20:28:35.665Z,18.60
2023-05-18T20:31:02.560Z,18.70
2023-05-18T20:33:30.279Z,18.70
2023-05-18T20:35:57.113Z,18.70
2023-05-18T20:38:25.943Z,18.80
2023-05-18T20:40:53.646Z,18.80
2023-05-18T20:43:21.383Z,18.70
2023-05-18T20:45:49.535Z,18.70
2023-05-18T20:48:24.436Z,18.70
2023-05-18T20:50:52.444Z,18.70
2023-05-18T20:53:19.453Z,18.60
2023-05-18T20:55:47.585Z,18.60
2023-05-18T20:58:15.356Z,18.70
2023-05-18T21:00:42.196Z,18.70
2023-05-18T21:03:09.021Z,18.70
2023-05-18T21:05:36.110Z,18.70
2023-05-18T21:08:03.442Z,18.60
2023-05-18T21:10:32.022Z,18.70
2023-05-18T21:12:59.390Z,18.60
2023-05-18T21:15:26.491Z,18.60
2023-05-18T21:17:54.893Z,18.60
2023-05-18T21:20:21.957Z,18.60
2023-05-18T21:22:48.767Z,18.60
2023-05-18T21:25:17.726Z,18.60
2023-05-18T21:27:44.735Z,18.60
2023-05-18T21:30:13.011Z,18.60
2023-05-18T21:32:40.851Z,18.50
2023-05-18T21:35:07.876Z,18.60
2023-05-18T21:37:34.739Z,18.60
2023-05-18T21:40:01.508Z,18.60
2023-05-18T21:42:28.470Z,18.60
2023-05-18T21:44:55.194Z,18.60
2023-05-18T21:47:22.039Z,18.50
2023-05-18T21:49:48.901Z,18.60
2023-05-18T21:52:15.731Z,18.60
2023-05-18T21:54:42.470Z,18.60
2023-05-18T21:57:09.300Z,18.60
2023-05-18T21:59:36.082Z,18.60
2023-05-18T22:02:02.847Z,18.60
2023-05-18T22:04:29.677Z,18.60
2023-05-18T22:06:56.430Z,18.60
2023-05-18T22:09:23.239Z,18.50
2023-05-18T22:11:49.982Z,18.60
2023-05-18T22:14:18.164Z,18.60
2023-05-18T22:16:45.173Z,18.60
2023-05-18T22:19:12.129Z,18.60
2023-05-18T22:21:38.987Z,18.60
2023-05-18T22:24:06.041Z,18.60
2023-05-18T22:26:32.860Z,18.50
2023-05-18T22:28:59.678Z,18.40
2023-05-18T22:31:26.441Z,18.50
2023-05-18T22:33:54.068Z,18.40
2023-05-18T22:36:21.855Z,18.40
2023-05-18T22:38:49.630Z,18.30
2023-05-18T22:41:17.480Z,18.40
2023-05-18T22:43:44.598Z,18.30
2023-05-18T22:46:11.854Z,18.40
2023-05-18T22:48:39.588Z,18.30
2023-05-18T22:51:06.966Z,18.40
2023-05-18T22:53:33.992Z,18.40
2023-05-18T22:56:01.107Z,18.30
2023-05-18T22:58:28.181Z,18.30
2023-05-18T23:00:54.846Z,18.30
2023-05-18T23:03:21.716Z,18.30
2023-05-18T23:05:48.535Z,18.20
2023-05-18T23:08:16.032Z,18.10
2023-05-18T23:10:44.324Z,18.10
2023-05-18T23:13:12.002Z,18.00
2023-05-18T23:15:41.539Z,17.90
2023-05-18T23:18:09.248Z,17.90
2023-05-18T23:20:36.327Z,17.90
2023-05-18T23:23:03.215Z,18.00
2023-05-18T23:25:30.251Z,18.00
2023-05-18T23:27:57.024Z,17.90
2023-05-18T23:30:23.768Z,17.90
2023-05-18T23:32:50.982Z,17.90
2023-05-18T23:35:18.301Z,17.80
2023-05-18T23:37:48.915Z,17.80
2023-05-18T23:40:18.375Z,17.80
2023-05-18T23:42:45.845Z,17.70
2023-05-18T23:45:13.263Z,17.70
2023-05-18T23:47:40.641Z,17.70
2023-05-18T23:50:08.195Z,17.70
2023-05-18T23:52:35.371Z,17.70
2023-05-18T23:55:04.242Z,17.80
2023-05-18T23:57:31.593Z,17.70
2023-05-18T23:59:58.917Z,17.80
